createdAt,value
2018-12-26T00:01:56.550Z,37.17
2018-12-26T00:04:36.762Z,27.17
2018-12-26T00:07:16.673Z,25.40
2018-12-26T00:09:56.929Z,24.52
2018-12-26T00:12:36.383Z,28.40
2018-12-26T00:15:16.294Z,28.85
2018-12-26T00:17:56.768Z,26.57
2018-12-26T00:20:37.073Z,25.52
2018-12-26T00:23:17.443Z,26.55
2018-12-26T00:26:01.609Z,32.20
2018-12-26T00:28:39.798Z,30.55
2018-12-26T00:31:19.782Z,30.00
2018-12-26T00:33:59.479Z,29.18
2018-12-26T00:36:39.844Z,22.00
2018-12-26T00:39:19.545Z,20.77
2018-12-26T00:42:00.094Z,17.95
2018-12-26T00:44:27.982Z,19.27
2018-12-26T00:47:14.585Z,20.92
2018-12-26T00:50:01.578Z,17.62
2018-12-26T00:52:48.573Z,21.00
2018-12-26T00:55:35.709Z,24.95
2018-12-26T00:58:15.939Z,23.12
2018-12-26T01:00:56.374Z,23.55
2018-12-26T01:03:36.588Z,114.92
2018-12-26T01:06:16.249Z,128.15
2018-12-26T01:08:56.374Z,66.45
2018-12-26T01:11:36.219Z,34.85
2018-12-26T01:14:16.782Z,29.20
2018-12-26T01:16:56.882Z,30.60
2018-12-26T01:19:36.669Z,31.27
2018-12-26T01:22:16.720Z,37.00
2018-12-26T01:24:56.862Z,62.10
2018-12-26T01:27:36.866Z,51.08
2018-12-26T01:30:17.271Z,45.08
2018-12-26T01:32:57.082Z,38.98
2018-12-26T01:35:37.268Z,29.30
2018-12-26T01:38:17.223Z,21.90
2018-12-26T01:40:56.679Z,30.72
2018-12-26T01:43:36.986Z,25.48
2018-12-26T01:46:16.414Z,28.30
2018-12-26T01:48:57.086Z,26.48
2018-12-26T01:51:36.938Z,24.27
2018-12-26T01:54:16.850Z,21.93
2018-12-26T01:56:56.702Z,17.87
2018-12-26T02:02:29.291Z,18.30
2018-12-26T02:05:15.850Z,19.10
2018-12-26T02:08:02.550Z,20.25
2018-12-26T02:10:49.629Z,22.15
2018-12-26T02:13:36.329Z,17.50
2018-12-26T02:16:23.344Z,19.98
2018-12-26T02:19:10.685Z,19.30
2018-12-26T02:21:57.999Z,18.10
2018-12-26T02:24:45.315Z,19.05
2018-12-26T02:27:32.328Z,16.97
2018-12-26T02:30:19.224Z,19.17
2018-12-26T02:33:05.645Z,19.87
2018-12-26T02:35:52.782Z,20.57
2018-12-26T02:38:39.797Z,21.17
2018-12-26T02:41:26.251Z,22.80
2018-12-26T02:44:12.779Z,27.58
2018-12-26T02:46:59.471Z,26.70
2018-12-26T02:49:46.177Z,21.17
2018-12-26T02:52:32.885Z,21.20
2018-12-26T02:55:20.147Z,17.32
2018-12-26T02:58:07.109Z,18.65
2018-12-26T03:00:53.838Z,17.82
2018-12-26T03:03:40.669Z,19.23
2018-12-26T03:06:27.577Z,18.45
2018-12-26T03:09:14.696Z,24.15
2018-12-26T03:12:01.414Z,19.62
2018-12-26T03:14:48.112Z,20.88
2018-12-26T03:17:34.810Z,16.05
2018-12-26T03:20:21.494Z,14.45
2018-12-26T03:23:08.850Z,15.10
2018-12-26T03:25:55.870Z,40.30
2018-12-26T03:28:43.009Z,21.55
2018-12-26T03:31:30.024Z,20.82
2018-12-26T03:34:17.336Z,20.45
2018-12-26T03:37:04.575Z,27.35
2018-12-26T03:39:51.803Z,44.75
2018-12-26T03:42:39.211Z,48.52
2018-12-26T03:45:26.309Z,35.03
2018-12-26T03:48:13.837Z,26.93
2018-12-26T03:51:00.969Z,34.00
2018-12-26T03:53:48.075Z,45.17
2018-12-26T03:56:35.211Z,38.85
2018-12-26T03:59:15.594Z,34.25
2018-12-26T04:01:55.814Z,34.30
2018-12-26T04:04:35.679Z,29.85
2018-12-26T04:07:15.707Z,26.77
2018-12-26T04:09:55.982Z,22.30
2018-12-26T04:12:36.090Z,28.38
2018-12-26T04:15:15.984Z,30.50
2018-12-26T04:17:56.243Z,26.52
2018-12-26T04:20:36.106Z,28.67
2018-12-26T04:23:16.190Z,34.50
2018-12-26T04:25:56.286Z,26.80
2018-12-26T04:28:36.127Z,29.00
2018-12-26T04:31:16.342Z,21.57
2018-12-26T04:33:56.714Z,23.00
2018-12-26T04:36:36.554Z,22.20
2018-12-26T04:39:17.093Z,19.52
2018-12-26T04:41:56.941Z,19.48
2018-12-26T04:44:36.731Z,17.80
2018-12-26T04:47:17.080Z,25.72
2018-12-26T04:49:56.901Z,28.12
2018-12-26T04:52:37.027Z,21.52
2018-12-26T04:55:16.985Z,21.82
2018-12-26T04:57:56.842Z,22.17
2018-12-26T05:00:37.430Z,22.32
2018-12-26T05:03:17.258Z,22.70
2018-12-26T05:05:57.343Z,22.60
2018-12-26T05:08:37.442Z,21.27
2018-12-26T05:11:17.475Z,22.02
2018-12-26T05:13:57.333Z,21.45
2018-12-26T05:16:37.396Z,22.98
2018-12-26T05:19:17.875Z,19.17
2018-12-26T05:21:57.318Z,20.90
2018-12-26T05:24:37.513Z,23.45
2018-12-26T05:27:17.773Z,32.70
2018-12-26T05:29:57.815Z,22.22
2018-12-26T05:32:37.872Z,27.17
2018-12-26T05:35:18.406Z,29.02
2018-12-26T05:37:58.129Z,53.35
2018-12-26T05:40:38.118Z,28.80
2018-12-26T05:43:18.263Z,37.95
2018-12-26T05:45:58.227Z,24.85
2018-12-26T05:48:38.274Z,19.95
2018-12-26T05:51:17.938Z,18.17
2018-12-26T05:53:58.090Z,19.40
2018-12-26T05:56:38.628Z,21.87
2018-12-26T05:59:18.018Z,17.12
2018-12-26T06:01:58.585Z,17.45
2018-12-26T06:04:38.470Z,20.50
2018-12-26T06:07:18.217Z,16.62
2018-12-26T06:09:58.422Z,18.98
2018-12-26T06:12:38.569Z,21.75
2018-12-26T06:15:18.606Z,16.20
2018-12-26T06:17:58.737Z,22.55
2018-12-26T06:20:38.943Z,21.62
2018-12-26T06:23:19.537Z,20.75
2018-12-26T06:25:59.625Z,18.67
2018-12-26T06:28:40.012Z,18.62
2018-12-26T06:31:20.194Z,22.10
2018-12-26T06:34:00.462Z,35.83
2018-12-26T06:36:39.999Z,27.87
2018-12-26T06:39:20.414Z,24.07
2018-12-26T06:42:00.214Z,24.23
2018-12-26T06:44:40.256Z,19.82
2018-12-26T06:47:20.335Z,23.35
2018-12-26T06:50:00.339Z,20.40
2018-12-26T06:52:40.318Z,19.90
2018-12-26T06:55:20.431Z,18.07
2018-12-26T06:58:00.544Z,30.75
2018-12-26T07:00:40.915Z,39.20
2018-12-26T07:03:21.175Z,32.17
2018-12-26T07:06:01.354Z,25.65
2018-12-26T07:08:41.454Z,23.85
2018-12-26T07:11:23.098Z,24.87
2018-12-26T07:14:03.402Z,29.85
2018-12-26T07:16:43.806Z,41.48
2018-12-26T07:19:23.723Z,26.10
2018-12-26T07:22:03.757Z,23.12
2018-12-26T07:24:43.924Z,20.45
2018-12-26T07:27:23.601Z,21.02
2018-12-26T07:30:03.806Z,28.30
2018-12-26T07:32:43.950Z,22.80
2018-12-26T07:35:23.981Z,30.20
2018-12-26T07:38:04.414Z,19.77
2018-12-26T07:40:44.666Z,21.37
2018-12-26T07:43:24.733Z,22.87
2018-12-26T07:46:04.450Z,27.02
2018-12-26T07:48:44.818Z,27.05
2018-12-26T07:51:25.014Z,34.13
2018-12-26T07:54:04.804Z,35.28
2018-12-26T07:56:45.196Z,39.18
2018-12-26T07:59:25.295Z,34.98
2018-12-26T08:02:05.246Z,33.20
2018-12-26T08:04:45.202Z,37.05
2018-12-26T08:07:25.233Z,39.08
2018-12-26T08:10:05.286Z,37.75
2018-12-26T08:12:45.338Z,31.02
2018-12-26T08:15:25.872Z,28.65
2018-12-26T08:18:05.906Z,28.75
2018-12-26T08:20:45.454Z,29.45
2018-12-26T08:23:26.238Z,27.15
2018-12-26T08:26:06.438Z,25.70
2018-12-26T08:28:46.238Z,56.53
2018-12-26T08:31:26.526Z,36.23
2018-12-26T08:34:06.918Z,71.87
2018-12-26T08:36:46.746Z,50.15
2018-12-26T08:39:26.865Z,47.70
2018-12-26T08:42:07.233Z,64.67
2018-12-26T08:44:47.151Z,46.50
2018-12-26T08:47:27.514Z,43.28
2018-12-26T08:50:07.546Z,37.70
2018-12-26T08:52:47.754Z,63.90
2018-12-26T08:55:27.735Z,36.03
2018-12-26T08:58:07.367Z,28.00
2018-12-26T09:00:47.605Z,83.22
2018-12-26T09:03:27.958Z,48.65
2018-12-26T09:06:08.052Z,56.70
2018-12-26T09:08:48.093Z,45.25
2018-12-26T09:11:28.340Z,44.42
2018-12-26T09:14:08.571Z,36.08
2018-12-26T09:16:48.716Z,26.80
2018-12-26T09:19:28.730Z,27.85
2018-12-26T09:22:08.393Z,23.42
2018-12-26T09:24:48.845Z,20.12
2018-12-26T09:27:28.885Z,19.95
2018-12-26T09:30:09.085Z,28.23
2018-12-26T09:32:48.853Z,35.98
2018-12-26T09:35:29.234Z,42.67
2018-12-26T09:38:08.664Z,42.65
2018-12-26T09:40:49.365Z,38.83
2018-12-26T09:43:29.458Z,38.05
2018-12-26T09:46:09.675Z,28.80
2018-12-26T09:48:49.138Z,42.33
2018-12-26T09:51:29.343Z,46.58
2018-12-26T09:54:09.655Z,56.18
2018-12-26T09:56:49.963Z,48.05
2018-12-26T09:59:30.103Z,39.20
2018-12-26T10:05:18.093Z,21.62
2018-12-26T10:07:58.626Z,17.52
2018-12-26T10:10:38.422Z,22.45
2018-12-26T10:13:18.613Z,15.25
2018-12-26T10:15:58.635Z,22.45
2018-12-26T10:18:38.779Z,18.85
2018-12-26T10:21:19.211Z,16.02
2018-12-26T10:23:58.814Z,23.30
2018-12-26T10:26:38.537Z,18.60
2018-12-26T10:29:18.974Z,17.42
2018-12-26T10:31:58.778Z,19.42
2018-12-26T10:34:39.189Z,17.85
2018-12-26T10:37:19.131Z,33.92
2018-12-26T10:39:59.114Z,30.43
2018-12-26T10:42:39.235Z,22.07
2018-12-26T10:45:06.605Z,18.32
2018-12-26T10:47:53.698Z,30.97
2018-12-26T10:50:40.726Z,17.60
2018-12-26T10:53:27.510Z,19.77
2018-12-26T10:59:36.827Z,17.35
2018-12-26T11:02:16.897Z,17.23
2018-12-26T11:04:57.358Z,17.35
2018-12-26T11:07:37.268Z,18.48
2018-12-26T11:10:17.467Z,16.85
2018-12-26T11:12:57.609Z,15.98
2018-12-26T11:15:37.421Z,17.40
2018-12-26T11:18:17.621Z,14.95
2018-12-26T11:20:57.933Z,12.37
2018-12-26T11:23:37.902Z,13.25
2018-12-26T11:26:17.334Z,16.07
2018-12-26T11:28:57.574Z,14.23
2018-12-26T11:31:37.578Z,18.50
2018-12-26T11:34:17.731Z,15.43
2018-12-26T11:36:57.699Z,15.25
2018-12-26T11:39:38.026Z,14.70
2018-12-26T11:42:17.922Z,13.55
2018-12-26T11:44:57.678Z,15.00
2018-12-26T11:47:37.442Z,19.55
2018-12-26T11:50:17.553Z,16.15
2018-12-26T11:52:57.550Z,16.32
2018-12-26T11:55:37.735Z,16.60
2018-12-26T11:58:18.034Z,16.40
2018-12-26T12:00:58.298Z,17.07
2018-12-26T12:03:37.949Z,18.57
2018-12-26T12:06:18.031Z,18.45
2018-12-26T12:08:58.446Z,21.30
2018-12-26T12:11:38.226Z,19.10
2018-12-26T12:14:18.459Z,15.88
2018-12-26T12:16:58.041Z,15.63
2018-12-26T12:19:38.123Z,20.77
2018-12-26T12:22:18.227Z,17.75
2018-12-26T12:24:58.579Z,23.90
2018-12-26T12:27:38.134Z,16.90
2018-12-26T12:30:18.507Z,20.55
2018-12-26T12:32:58.559Z,20.12
2018-12-26T12:35:38.775Z,20.60
2018-12-26T12:38:18.749Z,19.05
2018-12-26T12:40:58.926Z,21.93
2018-12-26T12:43:38.943Z,20.10
2018-12-26T12:46:18.941Z,21.95
2018-12-26T12:48:59.255Z,24.52
2018-12-26T12:51:38.895Z,23.07
2018-12-26T12:54:19.016Z,20.27
2018-12-26T12:56:59.143Z,19.27
2018-12-26T12:59:44.803Z,18.23
2018-12-26T13:02:21.075Z,24.70
2018-12-26T13:05:01.091Z,17.57
2018-12-26T13:07:40.883Z,17.75
2018-12-26T13:10:21.033Z,16.27
2018-12-26T13:13:01.087Z,17.15
2018-12-26T13:15:41.019Z,24.85
2018-12-26T13:18:21.051Z,20.12
2018-12-26T13:21:01.106Z,19.70
2018-12-26T13:23:40.638Z,20.95
2018-12-26T13:26:20.481Z,25.92
2018-12-26T13:29:00.695Z,20.70
2018-12-26T13:31:40.883Z,19.77
2018-12-26T13:34:20.719Z,24.75
2018-12-26T13:37:00.662Z,20.88
2018-12-26T13:39:41.043Z,19.25
2018-12-26T13:42:21.037Z,24.80
2018-12-26T13:45:00.861Z,19.90
2018-12-26T13:47:41.276Z,20.35
2018-12-26T13:50:21.423Z,18.70
2018-12-26T13:53:01.386Z,21.50
2018-12-26T13:55:41.445Z,23.52
2018-12-26T13:58:21.393Z,18.77
2018-12-26T14:01:01.692Z,21.25
2018-12-26T14:03:41.490Z,18.75
2018-12-26T14:06:21.834Z,21.23
2018-12-26T14:09:01.415Z,21.33
2018-12-26T14:11:40.741Z,18.77
2018-12-26T14:14:21.137Z,22.80
2018-12-26T14:17:01.246Z,17.52
2018-12-26T14:19:41.792Z,21.45
2018-12-26T14:22:21.830Z,22.32
2018-12-26T14:25:02.045Z,21.50
2018-12-26T14:27:42.259Z,23.67
2018-12-26T14:30:22.276Z,19.98
2018-12-26T14:33:02.295Z,21.10
2018-12-26T14:35:42.335Z,22.20
2018-12-26T14:38:22.190Z,22.25
2018-12-26T14:41:02.455Z,21.55
2018-12-26T14:43:42.934Z,23.95
2018-12-26T14:46:10.570Z,21.70
2018-12-26T14:49:16.939Z,25.10
2018-12-26T14:52:03.770Z,23.47
2018-12-26T14:54:50.946Z,21.93
2018-12-26T14:57:38.029Z,22.48
2018-12-26T15:00:24.798Z,23.65
2018-12-26T15:03:11.647Z,24.47
2018-12-26T15:06:00.289Z,25.35
2018-12-26T15:08:48.201Z,20.72
2018-12-26T15:11:35.498Z,24.60
2018-12-26T15:14:22.186Z,24.85
2018-12-26T15:17:09.324Z,21.65
2018-12-26T15:19:56.446Z,19.15
2018-12-26T15:22:43.458Z,30.43
2018-12-26T15:25:30.267Z,24.98
2018-12-26T15:28:16.965Z,19.25
2018-12-26T15:31:04.407Z,22.32
2018-12-26T15:33:51.502Z,21.60
2018-12-26T15:36:38.538Z,20.77
2018-12-26T15:39:25.654Z,25.20
2018-12-26T15:42:12.602Z,20.82
2018-12-26T15:44:59.350Z,28.92
2018-12-26T15:47:46.608Z,26.57
2018-12-26T15:50:33.336Z,21.60
2018-12-26T15:53:20.624Z,23.57
2018-12-26T15:56:07.083Z,23.30
2018-12-26T15:58:46.846Z,20.62
2018-12-26T16:01:27.334Z,23.35
2018-12-26T16:04:09.384Z,21.73
2018-12-26T16:06:49.110Z,24.85
2018-12-26T16:09:29.523Z,23.87
2018-12-26T16:12:09.451Z,27.93
2018-12-26T16:14:49.378Z,21.27
2018-12-26T16:17:29.442Z,21.87
2018-12-26T16:20:09.327Z,24.75
2018-12-26T16:22:49.675Z,23.38
2018-12-26T16:25:29.699Z,26.10
2018-12-26T16:28:09.698Z,23.42
2018-12-26T16:30:49.750Z,24.77
2018-12-26T16:33:30.312Z,24.02
2018-12-26T16:36:10.195Z,26.05
2018-12-26T16:38:50.297Z,24.02
2018-12-26T16:41:30.844Z,25.90
2018-12-26T16:44:10.919Z,26.15
2018-12-26T16:46:51.458Z,29.65
2018-12-26T16:49:31.445Z,24.37
2018-12-26T16:52:11.585Z,25.08
2018-12-26T16:54:51.374Z,26.75
2018-12-26T16:57:32.196Z,30.43
2018-12-26T17:00:12.212Z,28.95
2018-12-26T17:05:57.710Z,31.90
2018-12-26T17:08:37.773Z,43.70
2018-12-26T17:11:17.661Z,48.35
2018-12-26T17:13:57.503Z,36.65
2018-12-26T17:16:37.578Z,45.98
2018-12-26T17:19:18.145Z,46.15
2018-12-26T17:21:58.202Z,42.65
2018-12-26T17:24:38.098Z,46.00
2018-12-26T17:27:17.932Z,45.67
2018-12-26T17:29:57.864Z,42.93
2018-12-26T17:32:38.311Z,37.65
2018-12-26T17:35:18.470Z,38.67
2018-12-26T17:37:58.370Z,40.28
2018-12-26T17:40:38.850Z,36.73
2018-12-26T17:43:18.650Z,41.15
2018-12-26T17:45:58.565Z,33.08
2018-12-26T17:48:38.671Z,30.37
2018-12-26T17:51:18.986Z,37.53
2018-12-26T17:53:59.654Z,33.48
2018-12-26T17:56:39.291Z,41.50
2018-12-26T17:59:19.525Z,40.63
2018-12-26T18:01:59.720Z,52.98
2018-12-26T18:04:39.997Z,47.38
2018-12-26T18:07:20.338Z,53.73
2018-12-26T18:10:00.250Z,56.33
2018-12-26T18:12:40.663Z,72.55
2018-12-26T18:15:21.030Z,69.87
2018-12-26T18:18:01.042Z,68.12
2018-12-26T18:20:41.037Z,64.67
2018-12-26T18:23:20.970Z,70.55
2018-12-26T18:26:01.083Z,57.08
2018-12-26T18:28:41.414Z,44.95
2018-12-26T18:31:22.133Z,37.15
2018-12-26T18:34:02.526Z,33.90
2018-12-26T18:36:45.692Z,39.35
2018-12-26T18:39:26.067Z,41.15
2018-12-26T18:45:07.385Z,34.18
2018-12-26T18:47:47.707Z,33.60
2018-12-26T18:50:27.898Z,35.75
2018-12-26T18:53:08.046Z,36.28
2018-12-26T18:55:48.169Z,44.42
2018-12-26T18:58:27.887Z,54.83
2018-12-26T19:01:07.849Z,52.90
2018-12-26T19:03:48.018Z,44.38
2018-12-26T19:06:28.290Z,53.17
2018-12-26T19:09:08.475Z,59.27
2018-12-26T19:11:48.471Z,57.60
2018-12-26T19:14:16.145Z,49.85
2018-12-26T19:17:02.970Z,48.23
2018-12-26T19:19:50.206Z,39.85
2018-12-26T19:22:37.846Z,39.63
2018-12-26T19:25:24.845Z,38.88
2018-12-26T19:28:12.080Z,41.40
2018-12-26T19:30:59.393Z,48.60
2018-12-26T19:33:46.720Z,47.90
2018-12-26T19:36:33.781Z,45.90
2018-12-26T19:39:20.846Z,45.08
2018-12-26T19:42:07.814Z,48.23
2018-12-26T19:44:54.888Z,46.08
2018-12-26T19:47:41.633Z,35.88
2018-12-26T19:50:28.493Z,42.58
2018-12-26T19:53:15.824Z,40.03
2018-12-26T19:55:43.776Z,45.80
2018-12-26T19:58:23.710Z,47.17
2018-12-26T20:01:04.142Z,48.40
2018-12-26T20:03:43.924Z,45.25
2018-12-26T20:06:23.751Z,52.40
2018-12-26T20:09:04.143Z,38.40
2018-12-26T20:11:44.327Z,45.00
2018-12-26T20:14:24.745Z,46.13
2018-12-26T20:17:04.722Z,44.27
2018-12-26T20:19:45.007Z,43.33
2018-12-26T20:22:25.230Z,38.98
2018-12-26T20:25:05.038Z,39.98
2018-12-26T20:27:45.487Z,39.05
2018-12-26T20:30:25.526Z,39.85
2018-12-26T20:33:05.458Z,41.13
2018-12-26T20:35:45.813Z,42.25
2018-12-26T20:38:25.986Z,47.70
2018-12-26T20:41:06.075Z,53.20
2018-12-26T20:43:45.832Z,42.23
2018-12-26T20:46:25.860Z,38.60
2018-12-26T20:49:06.170Z,39.03
2018-12-26T20:51:46.319Z,45.58
2018-12-26T20:54:26.370Z,38.50
2018-12-26T20:57:06.235Z,39.03
2018-12-26T20:59:46.309Z,40.95
2018-12-26T21:02:27.060Z,40.83
2018-12-26T21:05:06.979Z,42.80
2018-12-26T21:07:47.286Z,40.83
2018-12-26T21:10:27.083Z,40.05
2018-12-26T21:13:07.378Z,38.98
2018-12-26T21:15:47.732Z,39.80
2018-12-26T21:18:27.687Z,40.78
2018-12-26T21:21:08.338Z,38.63
2018-12-26T21:23:48.129Z,41.58
2018-12-26T21:26:28.527Z,45.70
2018-12-26T21:29:08.550Z,35.50
2018-12-26T21:31:49.018Z,40.58
2018-12-26T21:34:28.558Z,40.78
2018-12-26T21:36:56.261Z,53.48
2018-12-26T21:39:42.957Z,56.05
2018-12-26T21:42:29.725Z,57.13
2018-12-26T21:45:16.707Z,53.05
2018-12-26T21:48:04.424Z,54.27
2018-12-26T21:50:52.364Z,51.00
2018-12-26T21:53:39.731Z,56.70
2018-12-26T21:56:26.702Z,45.90
2018-12-26T21:59:06.935Z,47.73
2018-12-26T22:01:46.738Z,55.05
2018-12-26T22:04:26.935Z,49.70
2018-12-26T22:06:54.329Z,48.17
2018-12-26T22:09:41.329Z,43.40
2018-12-26T22:12:28.341Z,52.30
2018-12-26T22:15:15.524Z,48.00
2018-12-26T22:18:02.546Z,51.40
2018-12-26T22:20:49.830Z,41.33
2018-12-26T22:23:37.223Z,42.98
2018-12-26T22:26:23.928Z,40.23
2018-12-26T22:29:11.457Z,42.53
2018-12-26T22:31:58.545Z,47.93
2018-12-26T22:37:45.413Z,48.68
2018-12-26T22:43:48.830Z,54.55
2018-12-26T22:46:36.169Z,49.23
2018-12-26T22:49:22.891Z,57.33
2018-12-26T22:52:09.873Z,47.25
2018-12-26T22:54:57.933Z,50.85
2018-12-26T22:57:45.369Z,49.95
2018-12-26T23:03:25.958Z,52.62
2018-12-26T23:06:06.630Z,51.85
2018-12-26T23:08:47.373Z,54.03
2018-12-26T23:11:27.497Z,57.62
2018-12-26T23:14:07.472Z,58.92
2018-12-26T23:16:47.451Z,61.28
2018-12-26T23:19:31.200Z,63.58
2018-12-26T23:22:12.002Z,54.98
2018-12-26T23:24:51.662Z,48.92
2018-12-26T23:27:31.940Z,44.20
2018-12-26T23:30:11.222Z,49.18
2018-12-26T23:32:51.593Z,47.27
2018-12-26T23:35:31.644Z,40.12
2018-12-26T23:38:11.417Z,41.02
2018-12-26T23:40:51.493Z,53.08
2018-12-26T23:43:33.040Z,46.68
2018-12-26T23:46:12.902Z,48.52
2018-12-26T23:48:53.285Z,48.20
2018-12-26T23:51:33.151Z,51.05
2018-12-26T23:54:13.338Z,47.43
2018-12-26T23:56:53.751Z,55.10
2018-12-26T23:59:33.557Z,59.23
